createdAt,value
2017-01-10T00:00:26.184Z,1035.66
2017-01-10T00:01:26.170Z,1035.67
2017-01-10T00:02:26.155Z,1035.66
2017-01-10T00:03:26.140Z,1035.69
2017-01-10T00:04:26.125Z,1035.71
2017-01-10T00:05:26.111Z,1035.74
2017-01-10T00:06:26.096Z,1035.73
2017-01-10T00:07:26.080Z,1035.75
2017-01-10T00:08:26.066Z,1035.76
2017-01-10T00:09:26.051Z,1035.72
2017-01-10T00:10:26.036Z,1035.76
2017-01-10T00:11:26.020Z,1035.74
2017-01-10T00:12:26.006Z,1035.78
2017-01-10T00:13:25.991Z,1035.76
2017-01-10T00:14:25.975Z,1035.82
2017-01-10T00:15:25.960Z,1035.84
2017-01-10T00:16:25.945Z,1035.84
2017-01-10T00:17:25.930Z,1035.91
2017-01-10T00:18:25.914Z,1035.9
2017-01-10T00:19:25.899Z,1035.92
2017-01-10T00:20:25.884Z,1035.97
2017-01-10T00:21:25.869Z,1035.98
2017-01-10T00:22:25.853Z,1036.02
2017-01-10T00:23:25.838Z,1036
2017-01-10T00:24:25.823Z,1036
2017-01-10T00:25:25.807Z,1036.02
2017-01-10T00:26:25.792Z,1036.01
2017-01-10T00:27:25.778Z,1036.07
2017-01-10T00:28:25.762Z,1036.02
2017-01-10T00:29:25.746Z,1036.02
2017-01-10T00:30:25.730Z,1036.02
2017-01-10T00:31:25.716Z,1036.05
2017-01-10T00:32:25.701Z,1036.06
2017-01-10T00:33:25.684Z,1035.99
2017-01-10T00:34:25.669Z,1035.96
2017-01-10T00:35:25.654Z,1035.97
2017-01-10T00:36:25.639Z,1035.98
2017-01-10T00:37:25.623Z,1035.9
2017-01-10T00:38:25.607Z,1035.93
2017-01-10T00:39:25.592Z,1035.88
2017-01-10T00:40:25.575Z,1035.85
2017-01-10T00:41:25.560Z,1035.81
2017-01-10T00:42:25.545Z,1035.81
2017-01-10T00:43:25.530Z,1035.71
2017-01-10T00:44:25.515Z,1035.71
2017-01-10T00:45:25.500Z,1035.64
2017-01-10T00:46:25.484Z,1035.64
2017-01-10T00:47:25.468Z,1035.51
2017-01-10T00:48:25.452Z,1035.5
2017-01-10T00:49:25.437Z,1035.45
2017-01-10T00:50:25.421Z,1035.5
2017-01-10T00:51:25.405Z,1035.47
2017-01-10T00:52:25.390Z,1035.41
2017-01-10T00:53:25.375Z,1035.39
2017-01-10T00:54:25.378Z,1035.38
2017-01-10T00:55:25.344Z,1035.36
2017-01-10T00:56:25.328Z,1035.32
2017-01-10T00:57:25.313Z,1035.32
2017-01-10T00:58:25.298Z,1035.26
2017-01-10T00:59:25.281Z,1035.25
2017-01-10T01:00:25.266Z,1035.18
2017-01-10T01:01:25.251Z,1035.17
2017-01-10T01:02:25.234Z,1035.09
2017-01-10T01:03:25.219Z,1035.09
2017-01-10T01:04:25.204Z,1035.04
2017-01-10T01:05:25.188Z,1035.01
2017-01-10T01:06:25.173Z,1034.95
2017-01-10T01:07:25.158Z,1034.89
2017-01-10T01:08:25.142Z,1034.87
2017-01-10T01:09:25.127Z,1034.84
2017-01-10T01:10:25.111Z,1034.88
2017-01-10T01:11:25.096Z,1034.81
2017-01-10T01:12:25.081Z,1034.81
2017-01-10T01:13:25.066Z,1034.74
2017-01-10T01:14:25.050Z,1034.69
2017-01-10T01:15:25.035Z,1034.67
2017-01-10T01:16:25.019Z,1034.61
2017-01-10T01:17:25.004Z,1034.62
2017-01-10T01:18:24.989Z,1034.57
2017-01-10T01:19:24.974Z,1034.5
2017-01-10T01:20:24.959Z,1034.51
2017-01-10T01:21:24.944Z,1034.49
2017-01-10T01:22:24.929Z,1034.49
2017-01-10T01:23:24.914Z,1034.43
2017-01-10T01:24:24.898Z,1034.47
2017-01-10T01:25:24.883Z,1034.4
2017-01-10T01:26:24.868Z,1034.38
2017-01-10T01:27:24.852Z,1034.32
2017-01-10T01:28:24.838Z,1034.41
2017-01-10T01:29:24.823Z,1034.41
2017-01-10T01:30:24.808Z,1034.46
2017-01-10T01:31:24.792Z,1034.54
2017-01-10T01:32:24.777Z,1034.57
2017-01-10T01:33:24.764Z,1034.53
2017-01-10T01:34:24.748Z,1034.56
2017-01-10T01:35:24.732Z,1034.58
2017-01-10T01:36:24.717Z,1034.5
2017-01-10T01:37:24.703Z,1034.51
2017-01-10T01:38:24.686Z,1034.45
2017-01-10T01:39:24.672Z,1034.39
2017-01-10T01:40:24.657Z,1034.33
2017-01-10T01:41:24.642Z,1034.29
2017-01-10T01:42:24.626Z,1034.34
2017-01-10T01:43:24.611Z,1034.3
2017-01-10T01:44:24.596Z,1034.28
2017-01-10T01:45:24.582Z,1034.3
2017-01-10T01:46:24.565Z,1034.26
2017-01-10T01:47:24.551Z,1034.27
2017-01-10T01:48:24.536Z,1034.26
2017-01-10T01:49:24.520Z,1034.26
2017-01-10T01:50:24.505Z,1034.24
2017-01-10T01:51:24.490Z,1034.25
2017-01-10T01:52:24.475Z,1034.2
2017-01-10T01:53:24.460Z,1034.15
2017-01-10T01:54:24.445Z,1034.07
2017-01-10T01:55:24.430Z,1034.12
2017-01-10T01:56:24.415Z,1034.14
2017-01-10T01:57:24.401Z,1034.06
2017-01-10T01:58:24.384Z,1034.07
2017-01-10T01:59:24.369Z,1034.08
2017-01-10T02:00:24.353Z,1034.07
2017-01-10T02:01:24.338Z,1034.04
2017-01-10T02:02:24.323Z,1034.06
2017-01-10T02:03:24.309Z,1034.05
2017-01-10T02:04:24.293Z,1034.09
2017-01-10T02:05:24.278Z,1034.08
2017-01-10T02:06:24.263Z,1034.01
2017-01-10T02:07:24.248Z,1034.01
2017-01-10T02:08:24.232Z,1033.98
2017-01-10T02:09:24.218Z,1034.01
2017-01-10T02:10:24.203Z,1034.02
2017-01-10T02:11:24.187Z,1033.95
2017-01-10T02:12:24.172Z,1033.95
2017-01-10T02:13:24.157Z,1033.98
2017-01-10T02:14:24.142Z,1033.96
2017-01-10T02:15:24.127Z,1033.98
2017-01-10T02:16:24.112Z,1033.99
2017-01-10T02:17:24.097Z,1034
2017-01-10T02:18:24.083Z,1034.03
2017-01-10T02:19:24.068Z,1034.04
2017-01-10T02:20:24.053Z,1033.99
2017-01-10T02:21:24.038Z,1033.95
2017-01-10T02:22:24.022Z,1033.92
2017-01-10T02:23:24.008Z,1033.89
2017-01-10T02:24:23.993Z,1033.92
2017-01-10T02:25:23.978Z,1033.9
2017-01-10T02:26:23.962Z,1033.88
2017-01-10T02:27:23.948Z,1033.85
2017-01-10T02:28:23.932Z,1033.82
2017-01-10T02:29:23.917Z,1033.81
2017-01-10T02:30:23.902Z,1033.78
2017-01-10T02:31:23.888Z,1033.75
2017-01-10T02:32:23.873Z,1033.74
2017-01-10T02:33:23.857Z,1033.77
2017-01-10T02:34:23.842Z,1033.75
2017-01-10T02:35:23.827Z,1033.81
2017-01-10T02:36:23.813Z,1033.76
2017-01-10T02:37:23.797Z,1033.79
2017-01-10T02:38:23.783Z,1033.76
2017-01-10T02:39:23.767Z,1033.78
2017-01-10T02:40:23.752Z,1033.81
2017-01-10T02:41:23.737Z,1033.81
2017-01-10T02:42:23.723Z,1033.77
2017-01-10T02:43:23.708Z,1033.75
2017-01-10T02:44:23.692Z,1033.66
2017-01-10T02:45:23.678Z,1033.64
2017-01-10T02:46:23.663Z,1033.64
2017-01-10T02:47:23.648Z,1033.6
2017-01-10T02:48:23.632Z,1033.59
2017-01-10T02:49:23.618Z,1033.59
2017-01-10T02:50:23.603Z,1033.54
2017-01-10T02:51:23.588Z,1033.55
2017-01-10T02:52:23.573Z,1033.54
2017-01-10T02:53:23.558Z,1033.58
2017-01-10T02:54:23.544Z,1033.57
2017-01-10T02:55:23.528Z,1033.58
2017-01-10T02:56:23.513Z,1033.58
2017-01-10T02:57:23.498Z,1033.55
2017-01-10T02:58:23.485Z,1033.51
2017-01-10T02:59:23.468Z,1033.49
2017-01-10T03:00:23.453Z,1033.49
2017-01-10T03:01:23.439Z,1033.43
2017-01-10T03:02:23.423Z,1033.46
2017-01-10T03:03:23.408Z,1033.37
2017-01-10T03:04:23.394Z,1033.38
2017-01-10T03:05:23.379Z,1033.42
2017-01-10T03:06:23.363Z,1033.41
2017-01-10T03:07:23.349Z,1033.4
2017-01-10T03:08:23.334Z,1033.43
2017-01-10T03:09:23.320Z,1033.43
2017-01-10T03:10:23.304Z,1033.41
2017-01-10T03:11:23.289Z,1033.41
2017-01-10T03:12:23.275Z,1033.41
2017-01-10T03:13:23.259Z,1033.36
2017-01-10T03:14:23.245Z,1033.37
2017-01-10T03:15:23.230Z,1033.34
2017-01-10T03:16:23.215Z,1033.35
2017-01-10T03:17:23.200Z,1033.34
2017-01-10T03:18:23.185Z,1033.33
2017-01-10T03:19:23.171Z,1033.31
2017-01-10T03:20:23.156Z,1033.33
2017-01-10T03:21:23.141Z,1033.3
2017-01-10T03:22:23.126Z,1033.29
2017-01-10T03:23:23.111Z,1033.35
2017-01-10T03:24:23.095Z,1033.33
2017-01-10T03:25:23.081Z,1033.29
2017-01-10T03:26:23.066Z,1033.31
2017-01-10T03:27:23.051Z,1033.27
2017-01-10T03:28:23.036Z,1033.31
2017-01-10T03:29:23.021Z,1033.32
2017-01-10T03:30:23.006Z,1033.3
2017-01-10T03:31:22.992Z,1033.25
2017-01-10T03:32:22.976Z,1033.23
2017-01-10T03:33:22.961Z,1033.22
2017-01-10T03:34:22.946Z,1033.21
2017-01-10T03:35:22.930Z,1033.2
2017-01-10T03:36:22.916Z,1033.16
2017-01-10T03:37:22.901Z,1033.19
2017-01-10T03:38:22.887Z,1033.16
2017-01-10T03:39:22.871Z,1033.18
2017-01-10T03:40:22.856Z,1033.15
2017-01-10T03:41:22.841Z,1033.15
2017-01-10T03:42:22.826Z,1033.14
2017-01-10T03:43:22.811Z,1033.14
2017-01-10T03:44:22.796Z,1033.11
2017-01-10T03:45:22.781Z,1033.14
2017-01-10T03:46:22.765Z,1033.11
2017-01-10T03:47:22.750Z,1033.11
2017-01-10T03:48:22.736Z,1033.14
2017-01-10T03:49:22.720Z,1033.13
2017-01-10T03:50:22.707Z,1033.12
2017-01-10T03:51:22.690Z,1033.21
2017-01-10T03:52:22.675Z,1033.26
2017-01-10T03:53:22.660Z,1033.29
2017-01-10T03:54:22.645Z,1033.31
2017-01-10T03:55:22.631Z,1033.33
2017-01-10T03:56:22.616Z,1033.32
2017-01-10T03:57:22.600Z,1033.43
2017-01-10T03:58:22.585Z,1033.48
2017-01-10T03:59:22.570Z,1033.46
2017-01-10T04:00:22.554Z,1033.48
2017-01-10T04:01:22.539Z,1033.53
2017-01-10T04:02:22.524Z,1033.54
2017-01-10T04:03:22.508Z,1033.5
2017-01-10T04:04:22.493Z,1033.52
2017-01-10T04:05:22.477Z,1033.55
2017-01-10T04:06:22.461Z,1033.53
2017-01-10T04:07:22.447Z,1033.55
2017-01-10T04:08:22.430Z,1033.6
2017-01-10T04:09:22.415Z,1033.61
2017-01-10T04:10:22.400Z,1033.64
2017-01-10T04:11:22.385Z,1033.65
2017-01-10T04:12:22.368Z,1033.72
2017-01-10T04:13:22.353Z,1033.68
2017-01-10T04:14:22.337Z,1033.72
2017-01-10T04:15:22.322Z,1033.73
2017-01-10T04:16:22.305Z,1033.71
2017-01-10T04:17:22.290Z,1033.7
2017-01-10T04:18:22.274Z,1033.75
2017-01-10T04:19:22.261Z,1033.78
2017-01-10T04:20:22.242Z,1033.78
2017-01-10T04:21:22.227Z,1033.8
2017-01-10T04:22:22.212Z,1033.88
2017-01-10T04:23:22.195Z,1033.88
2017-01-10T04:24:22.179Z,1033.89
2017-01-10T04:25:22.163Z,1033.86
2017-01-10T04:26:22.146Z,1033.92
2017-01-10T04:27:22.131Z,1033.89
2017-01-10T04:28:22.115Z,1033.86
2017-01-10T04:29:22.099Z,1033.88
2017-01-10T04:30:22.082Z,1033.93
2017-01-10T04:31:22.066Z,1033.97
2017-01-10T04:32:22.050Z,1033.95
2017-01-10T04:33:22.034Z,1033.97
2017-01-10T04:34:22.018Z,1033.96
2017-01-10T04:35:22.002Z,1033.99
2017-01-10T04:36:21.986Z,1033.99
2017-01-10T04:37:21.971Z,1034.01
2017-01-10T04:38:21.953Z,1034.04
2017-01-10T04:39:21.937Z,1034.02
2017-01-10T04:40:21.922Z,1034.05
2017-01-10T04:41:21.905Z,1034.09
2017-01-10T04:42:21.889Z,1034.11
2017-01-10T04:43:21.873Z,1034.13
2017-01-10T04:44:21.857Z,1034.12
2017-01-10T04:45:21.839Z,1034.11
2017-01-10T04:46:21.825Z,1034.14
2017-01-10T04:47:21.807Z,1034.16
2017-01-10T04:48:21.790Z,1034.22
2017-01-10T04:49:21.774Z,1034.19
2017-01-10T04:50:21.758Z,1034.24
2017-01-10T04:51:21.742Z,1034.2
2017-01-10T04:52:21.725Z,1034.26
2017-01-10T04:53:21.708Z,1034.22
2017-01-10T04:54:21.692Z,1034.24
2017-01-10T04:55:21.676Z,1034.27
2017-01-10T04:56:21.659Z,1034.3
2017-01-10T04:57:21.643Z,1034.32
2017-01-10T04:58:21.626Z,1034.3
2017-01-10T04:59:21.610Z,1034.36
2017-01-10T05:00:21.593Z,1034.36
2017-01-10T05:01:21.577Z,1034.37
2017-01-10T05:02:21.561Z,1034.37
2017-01-10T05:03:21.553Z,1034.41
2017-01-10T05:04:21.527Z,1034.43
2017-01-10T05:05:21.510Z,1034.41
2017-01-10T05:06:21.494Z,1034.4
2017-01-10T05:07:21.477Z,1034.41
2017-01-10T05:08:21.460Z,1034.42
2017-01-10T05:09:21.452Z,1034.41
2017-01-10T05:10:21.426Z,1034.45
2017-01-10T05:11:21.410Z,1034.46
2017-01-10T05:12:21.410Z,1034.48
2017-01-10T05:13:21.377Z,1034.48
2017-01-10T05:14:21.359Z,1034.5
2017-01-10T05:15:21.343Z,1034.52
2017-01-10T05:16:21.327Z,1034.53
2017-01-10T05:17:21.310Z,1034.51
2017-01-10T05:18:21.293Z,1034.51
2017-01-10T05:19:21.276Z,1034.51
2017-01-10T05:20:21.260Z,1034.57
2017-01-10T05:21:21.243Z,1034.54
2017-01-10T05:22:21.226Z,1034.54
2017-01-10T05:23:21.209Z,1034.58
2017-01-10T05:24:21.193Z,1034.56
2017-01-10T05:25:21.175Z,1034.56
2017-01-10T05:26:21.158Z,1034.57
2017-01-10T05:27:21.142Z,1034.6
2017-01-10T05:28:21.125Z,1034.59
2017-01-10T05:29:21.109Z,1034.6
2017-01-10T05:30:21.092Z,1034.61
2017-01-10T05:31:21.076Z,1034.58
2017-01-10T05:32:21.058Z,1034.6
2017-01-10T05:33:21.041Z,1034.55
2017-01-10T05:34:21.025Z,1034.62
2017-01-10T05:35:21.008Z,1034.59
2017-01-10T05:36:20.991Z,1034.59
2017-01-10T05:37:20.974Z,1034.56
2017-01-10T05:38:20.958Z,1034.59
2017-01-10T05:39:20.941Z,1034.59
2017-01-10T05:40:20.923Z,1034.54
2017-01-10T05:41:20.907Z,1034.56
2017-01-10T05:42:20.891Z,1034.52
2017-01-10T05:43:20.872Z,1034.5
2017-01-10T05:44:20.855Z,1034.5
2017-01-10T05:45:20.839Z,1034.51
2017-01-10T05:46:20.822Z,1034.51
2017-01-10T05:47:20.804Z,1034.5
2017-01-10T05:48:20.788Z,1034.55
2017-01-10T05:49:20.771Z,1034.47
2017-01-10T05:50:20.753Z,1034.52
2017-01-10T05:51:20.738Z,1034.48
2017-01-10T05:52:20.719Z,1034.51
2017-01-10T05:53:20.702Z,1034.49
2017-01-10T05:54:20.684Z,1034.49
2017-01-10T05:55:20.668Z,1034.49
2017-01-10T05:56:20.653Z,1034.48
2017-01-10T05:57:20.634Z,1034.48
2017-01-10T05:58:20.616Z,1034.5
2017-01-10T05:59:20.600Z,1034.52
2017-01-10T06:00:20.583Z,1034.5
2017-01-10T06:01:20.565Z,1034.5
2017-01-10T06:02:20.548Z,1034.57
2017-01-10T06:03:20.531Z,1034.55
2017-01-10T06:04:20.514Z,1034.59
2017-01-10T06:05:20.497Z,1034.59
2017-01-10T06:06:20.480Z,1034.6
2017-01-10T06:07:20.463Z,1034.6
2017-01-10T06:08:20.446Z,1034.62
2017-01-10T06:09:20.428Z,1034.59
2017-01-10T06:10:20.411Z,1034.58
2017-01-10T06:11:20.394Z,1034.59
2017-01-10T06:12:20.376Z,1034.57
2017-01-10T06:13:20.359Z,1034.6
2017-01-10T06:14:20.343Z,1034.6
2017-01-10T06:15:20.326Z,1034.6
2017-01-10T06:16:20.308Z,1034.58
2017-01-10T06:17:20.291Z,1034.6
2017-01-10T06:18:20.275Z,1034.6
2017-01-10T06:19:20.257Z,1034.6
2017-01-10T06:20:20.239Z,1034.56
2017-01-10T06:21:20.223Z,1034.61
2017-01-10T06:22:20.207Z,1034.61
2017-01-10T06:23:20.188Z,1034.59
2017-01-10T06:24:20.171Z,1034.62
2017-01-10T06:25:20.154Z,1034.63
2017-01-10T06:26:20.137Z,1034.64
2017-01-10T06:27:20.119Z,1034.65
2017-01-10T06:28:20.102Z,1034.68
2017-01-10T06:29:20.085Z,1034.72
2017-01-10T06:30:20.068Z,1034.65
2017-01-10T06:31:20.051Z,1034.67
2017-01-10T06:32:20.033Z,1034.68
2017-01-10T06:33:20.016Z,1034.67
2017-01-10T06:34:19.998Z,1034.71
2017-01-10T06:35:19.981Z,1034.71
2017-01-10T06:36:19.964Z,1034.76
2017-01-10T06:37:19.947Z,1034.75
2017-01-10T06:38:19.929Z,1034.73
2017-01-10T06:39:19.912Z,1034.77
2017-01-10T06:40:19.895Z,1034.77
2017-01-10T06:41:19.878Z,1034.77
2017-01-10T06:42:19.860Z,1034.81
2017-01-10T06:43:19.843Z,1034.8
2017-01-10T06:44:19.826Z,1034.78
2017-01-10T06:45:19.808Z,1034.79
2017-01-10T06:46:19.791Z,1034.78
2017-01-10T06:47:19.774Z,1034.77
2017-01-10T06:48:19.757Z,1034.8
2017-01-10T06:49:19.739Z,1034.83
2017-01-10T06:50:19.723Z,1034.85
2017-01-10T06:51:19.707Z,1034.85
2017-01-10T06:52:19.688Z,1034.8
2017-01-10T06:53:19.670Z,1034.8
2017-01-10T06:54:19.652Z,1034.72
2017-01-10T06:55:19.636Z,1034.75
2017-01-10T06:56:19.617Z,1034.75
2017-01-10T06:57:19.600Z,1034.73
2017-01-10T06:58:19.583Z,1034.8
2017-01-10T06:59:19.566Z,1034.82
2017-01-10T07:00:19.548Z,1034.82
2017-01-10T07:01:19.531Z,1034.81
2017-01-10T07:02:19.514Z,1034.84
2017-01-10T07:03:19.497Z,1034.82
2017-01-10T07:04:19.481Z,1034.85
2017-01-10T07:05:19.464Z,1034.82
2017-01-10T07:06:19.446Z,1034.82
2017-01-10T07:07:19.428Z,1034.85
2017-01-10T07:08:19.412Z,1034.88
2017-01-10T07:09:19.394Z,1034.88
2017-01-10T07:10:19.378Z,1034.82
2017-01-10T07:11:19.359Z,1034.78
2017-01-10T07:12:19.343Z,1034.78
2017-01-10T07:13:19.325Z,1034.78
2017-01-10T07:14:19.307Z,1034.82
2017-01-10T07:15:19.290Z,1034.82
2017-01-10T07:16:19.274Z,1034.82
2017-01-10T07:17:19.257Z,1034.83
2017-01-10T07:18:19.238Z,1034.82
2017-01-10T07:19:19.222Z,1034.8
2017-01-10T07:20:19.205Z,1034.85
2017-01-10T07:21:19.188Z,1034.76
2017-01-10T07:22:19.170Z,1034.81
2017-01-10T07:23:19.154Z,1034.78
2017-01-10T07:24:19.137Z,1034.78
2017-01-10T07:25:19.118Z,1034.76
2017-01-10T07:26:19.101Z,1034.75
2017-01-10T07:27:19.084Z,1034.71
2017-01-10T07:28:19.067Z,1034.69
2017-01-10T07:29:19.049Z,1034.62
2017-01-10T07:30:19.033Z,1034.66
2017-01-10T07:31:19.015Z,1034.65
2017-01-10T07:32:18.998Z,1034.61
2017-01-10T07:33:18.980Z,1034.61
2017-01-10T07:34:18.964Z,1034.62
2017-01-10T07:35:18.946Z,1034.63
2017-01-10T07:36:18.928Z,1034.62
2017-01-10T07:37:18.911Z,1034.6
2017-01-10T07:38:18.898Z,1034.57
2017-01-10T07:39:18.878Z,1034.57
2017-01-10T07:40:18.860Z,1034.58
2017-01-10T07:41:18.844Z,1034.54
2017-01-10T07:42:18.826Z,1034.56
2017-01-10T07:43:18.809Z,1034.55
2017-01-10T07:44:18.792Z,1034.55
2017-01-10T07:45:18.774Z,1034.57
2017-01-10T07:46:18.760Z,1034.49
2017-01-10T07:47:18.740Z,1034.49
2017-01-10T07:48:18.723Z,1034.53
2017-01-10T07:49:18.706Z,1034.53
2017-01-10T07:50:18.689Z,1034.51
2017-01-10T07:51:18.672Z,1034.44
2017-01-10T07:52:18.654Z,1034.48
2017-01-10T07:53:18.638Z,1034.47
2017-01-10T07:54:18.621Z,1034.49
2017-01-10T07:55:18.604Z,1034.42
2017-01-10T07:56:18.586Z,1034.42
2017-01-10T07:57:18.570Z,1034.42
2017-01-10T07:58:18.552Z,1034.43
2017-01-10T07:59:18.535Z,1034.41
2017-01-10T08:00:18.521Z,1034.4
2017-01-10T08:01:18.501Z,1034.34
2017-01-10T08:02:18.485Z,1034.35
2017-01-10T08:03:18.467Z,1034.34
2017-01-10T08:04:18.451Z,1034.3
2017-01-10T08:05:18.434Z,1034.25
2017-01-10T08:06:18.416Z,1034.24
2017-01-10T08:07:18.400Z,1034.18
2017-01-10T08:08:18.383Z,1034.17
2017-01-10T08:09:18.365Z,1034.19
2017-01-10T08:10:18.348Z,1034.17
2017-01-10T08:11:18.336Z,1034.17
2017-01-10T08:12:18.315Z,1034.08
2017-01-10T08:13:18.297Z,1034.1
2017-01-10T08:14:18.281Z,1034.14
2017-01-10T08:15:18.265Z,1034.11
2017-01-10T08:16:18.247Z,1034.16
2017-01-10T08:17:18.230Z,1034.14
2017-01-10T08:18:18.213Z,1034.14
2017-01-10T08:19:18.197Z,1034.18
2017-01-10T08:20:18.179Z,1034.19
2017-01-10T08:21:18.162Z,1034.17
2017-01-10T08:22:18.148Z,1034.19
2017-01-10T08:23:18.131Z,1034.17
2017-01-10T08:24:18.112Z,1034.17
2017-01-10T08:25:18.095Z,1034.14
2017-01-10T08:26:18.078Z,1034.11
2017-01-10T08:27:18.063Z,1034.07
2017-01-10T08:28:18.044Z,1034.03
2017-01-10T08:29:18.028Z,1033.98
2017-01-10T08:30:18.014Z,1033.95
2017-01-10T08:31:17.993Z,1033.94
2017-01-10T08:32:17.977Z,1033.95
2017-01-10T08:33:17.961Z,1033.91
2017-01-10T08:34:17.944Z,1033.83
2017-01-10T08:35:17.927Z,1033.82
2017-01-10T08:36:17.911Z,1033.77
2017-01-10T08:37:17.894Z,1033.76
2017-01-10T08:38:17.878Z,1033.74
2017-01-10T08:39:17.862Z,1033.73
2017-01-10T08:40:17.845Z,1033.6
2017-01-10T08:41:17.829Z,1033.58
2017-01-10T08:42:17.812Z,1033.46
2017-01-10T08:43:17.799Z,1033.42
2017-01-10T08:44:17.780Z,1033.32
2017-01-10T08:45:17.763Z,1033.2
2017-01-10T08:46:17.747Z,1033.13
2017-01-10T08:47:17.732Z,1033.06
2017-01-10T08:48:17.717Z,1033.02
2017-01-10T08:49:17.701Z,1032.97
2017-01-10T08:50:17.681Z,1032.91
2017-01-10T08:51:17.666Z,1032.8
2017-01-10T08:52:17.650Z,1032.77
2017-01-10T08:53:17.633Z,1032.75
2017-01-10T08:54:17.617Z,1032.74
2017-01-10T08:55:17.603Z,1032.77
2017-01-10T08:56:17.587Z,1032.74
2017-01-10T08:57:17.570Z,1032.7
2017-01-10T08:58:17.555Z,1032.62
2017-01-10T08:59:17.542Z,1032.58
2017-01-10T09:00:17.523Z,1032.51
2017-01-10T09:01:17.507Z,1032.45
2017-01-10T09:02:17.492Z,1032.42
2017-01-10T09:03:17.476Z,1032.37
2017-01-10T09:04:17.461Z,1032.3
2017-01-10T09:05:17.446Z,1032.26
2017-01-10T09:06:17.431Z,1032.22
2017-01-10T09:07:17.415Z,1032.19
2017-01-10T09:08:17.400Z,1032.15
2017-01-10T09:09:17.385Z,1032.09
2017-01-10T09:10:17.371Z,1032.02
2017-01-10T09:11:17.354Z,1032
2017-01-10T09:12:17.339Z,1031.96
2017-01-10T09:13:17.326Z,1031.96
2017-01-10T09:14:17.310Z,1031.96
2017-01-10T09:15:17.294Z,1031.96
2017-01-10T09:16:17.280Z,1031.88
2017-01-10T09:17:17.265Z,1031.85
2017-01-10T09:18:17.251Z,1031.79
2017-01-10T09:19:17.236Z,1031.71
2017-01-10T09:20:17.221Z,1031.66
2017-01-10T09:21:17.207Z,1031.62
2017-01-10T09:22:17.194Z,1031.62
2017-01-10T09:23:17.178Z,1031.51
2017-01-10T09:24:17.164Z,1031.52
2017-01-10T09:25:17.150Z,1031.49
2017-01-10T09:26:17.135Z,1031.38
2017-01-10T09:27:17.120Z,1031.36
2017-01-10T09:28:17.106Z,1031.34
2017-01-10T09:29:17.093Z,1031.29
2017-01-10T09:30:17.079Z,1031.28
2017-01-10T09:31:17.064Z,1031.2
2017-01-10T09:32:17.050Z,1031.21
2017-01-10T09:33:17.035Z,1031.16
2017-01-10T09:34:17.021Z,1031.11
2017-01-10T09:35:17.008Z,1031.08
2017-01-10T09:36:16.995Z,1031.09
2017-01-10T09:37:16.980Z,1031.05
2017-01-10T09:38:16.966Z,1031.07
2017-01-10T09:39:16.953Z,1031.06
2017-01-10T09:40:16.939Z,1031.06
2017-01-10T09:41:16.925Z,1031.03
2017-01-10T09:42:16.912Z,1030.99
2017-01-10T09:43:16.898Z,1030.96
2017-01-10T09:44:16.884Z,1030.96
2017-01-10T09:45:16.871Z,1030.93
2017-01-10T09:46:16.857Z,1030.93
2017-01-10T09:47:16.844Z,1030.96
2017-01-10T09:48:16.829Z,1030.99
2017-01-10T09:49:16.816Z,1030.95
2017-01-10T09:50:16.803Z,1030.93
2017-01-10T09:51:16.790Z,1030.98
2017-01-10T09:52:16.776Z,1030.96
2017-01-10T09:53:16.762Z,1030.95
2017-01-10T09:54:16.749Z,1030.91
2017-01-10T09:55:16.734Z,1030.95
2017-01-10T09:56:16.721Z,1030.97
2017-01-10T09:57:16.708Z,1030.99
2017-01-10T09:58:16.694Z,1030.98
2017-01-10T09:59:16.680Z,1030.96
2017-01-10T10:00:16.667Z,1030.99
2017-01-10T10:01:16.653Z,1030.93
2017-01-10T10:02:16.640Z,1030.92
2017-01-10T10:03:16.625Z,1030.89
2017-01-10T10:04:16.613Z,1030.85
2017-01-10T10:05:16.599Z,1030.79
2017-01-10T10:06:16.585Z,1030.78
2017-01-10T10:07:16.571Z,1030.73
2017-01-10T10:08:16.558Z,1030.78
2017-01-10T10:09:16.545Z,1030.67
2017-01-10T10:10:16.530Z,1030.63
2017-01-10T10:11:16.517Z,1030.59
2017-01-10T10:12:16.504Z,1030.58
2017-01-10T10:13:16.491Z,1030.59
2017-01-10T10:14:16.478Z,1030.57
2017-01-10T10:15:16.466Z,1030.57
2017-01-10T10:16:16.452Z,1030.6
2017-01-10T10:17:16.438Z,1030.59
2017-01-10T10:18:16.425Z,1030.55
2017-01-10T10:19:16.413Z,1030.49
2017-01-10T10:20:16.399Z,1030.47
2017-01-10T10:21:16.384Z,1030.48
2017-01-10T10:22:16.371Z,1030.49
2017-01-10T10:23:16.360Z,1030.48
2017-01-10T10:24:16.345Z,1030.49
2017-01-10T10:25:16.332Z,1030.53
2017-01-10T10:26:16.319Z,1030.54
2017-01-10T10:27:16.315Z,1030.55
2017-01-10T10:28:16.292Z,1030.54
2017-01-10T10:29:16.279Z,1030.48
2017-01-10T10:30:16.266Z,1030.53
2017-01-10T10:31:16.253Z,1030.51
2017-01-10T10:32:16.238Z,1030.51
2017-01-10T10:33:16.227Z,1030.48
2017-01-10T10:34:16.212Z,1030.42
2017-01-10T10:35:16.199Z,1030.49
2017-01-10T10:36:16.186Z,1030.46
2017-01-10T10:37:16.173Z,1030.39
2017-01-10T10:38:16.160Z,1030.45
2017-01-10T10:39:16.146Z,1030.45
2017-01-10T10:40:16.133Z,1030.42
2017-01-10T10:41:16.120Z,1030.41
2017-01-10T10:42:16.107Z,1030.37
2017-01-10T10:43:16.094Z,1030.38
2017-01-10T10:44:16.081Z,1030.41
2017-01-10T10:45:16.068Z,1030.36
2017-01-10T10:46:16.055Z,1030.33
2017-01-10T10:47:16.043Z,1030.29
2017-01-10T10:48:16.028Z,1030.25
2017-01-10T10:49:16.016Z,1030.2
2017-01-10T10:50:16.002Z,1030.2
2017-01-10T10:51:15.990Z,1030.15
2017-01-10T10:52:15.978Z,1030.12
2017-01-10T10:53:15.964Z,1030.1
2017-01-10T10:54:15.951Z,1029.99
2017-01-10T10:55:15.938Z,1029.94
2017-01-10T10:56:15.926Z,1029.96
2017-01-10T10:57:15.912Z,1029.99
2017-01-10T10:58:15.900Z,1029.98
2017-01-10T10:59:15.888Z,1029.97
2017-01-10T11:00:15.876Z,1029.98
2017-01-10T11:01:15.862Z,1029.94
2017-01-10T11:02:15.850Z,1029.88
2017-01-10T11:03:15.837Z,1029.83
2017-01-10T11:04:15.826Z,1029.9
2017-01-10T11:05:15.813Z,1029.97
2017-01-10T11:06:15.801Z,1029.99
2017-01-10T11:07:15.787Z,1030.06
2017-01-10T11:08:15.774Z,1030.11
2017-01-10T11:09:15.762Z,1030.13
2017-01-10T11:10:15.750Z,1030.14
2017-01-10T11:11:15.738Z,1030.23
2017-01-10T11:12:15.725Z,1030.3
2017-01-10T11:13:15.712Z,1030.34
2017-01-10T11:14:15.700Z,1030.38
2017-01-10T11:15:15.688Z,1030.41
2017-01-10T11:16:15.675Z,1030.44
2017-01-10T11:17:15.663Z,1030.38
2017-01-10T11:18:15.650Z,1030.42
2017-01-10T11:19:15.639Z,1030.51
2017-01-10T11:20:15.624Z,1030.52
2017-01-10T11:21:15.612Z,1030.51
2017-01-10T11:22:15.600Z,1030.47
2017-01-10T11:23:15.587Z,1030.49
2017-01-10T11:24:15.582Z,1030.49
2017-01-10T11:25:15.563Z,1030.53
2017-01-10T11:26:15.550Z,1030.51
2017-01-10T11:27:15.537Z,1030.53
2017-01-10T11:28:15.525Z,1030.46
2017-01-10T11:29:15.512Z,1030.44
2017-01-10T11:30:15.503Z,1030.48
2017-01-10T11:31:15.486Z,1030.47
2017-01-10T11:32:15.479Z,1030.45
2017-01-10T11:33:15.462Z,1030.47
2017-01-10T11:34:15.449Z,1030.45
2017-01-10T11:35:15.435Z,1030.46
2017-01-10T11:36:15.424Z,1030.47
2017-01-10T11:37:15.410Z,1030.39
2017-01-10T11:38:15.396Z,1030.42
2017-01-10T11:39:15.384Z,1030.43
2017-01-10T11:40:15.371Z,1030.42
2017-01-10T11:41:15.357Z,1030.4
2017-01-10T11:42:15.344Z,1030.49
2017-01-10T11:43:15.332Z,1030.45
2017-01-10T11:44:15.319Z,1030.45
2017-01-10T11:45:15.305Z,1030.41
2017-01-10T11:46:15.292Z,1030.45
2017-01-10T11:47:15.280Z,1030.42
2017-01-10T11:48:15.266Z,1030.42
2017-01-10T11:49:15.254Z,1030.4
2017-01-10T11:50:15.240Z,1030.42
2017-01-10T11:51:15.230Z,1030.45
2017-01-10T11:52:15.215Z,1030.43
2017-01-10T11:53:15.201Z,1030.38
2017-01-10T11:54:15.188Z,1030.37
2017-01-10T11:55:15.176Z,1030.31
2017-01-10T11:56:15.161Z,1030.26
2017-01-10T11:57:15.150Z,1030.14
2017-01-10T11:58:15.135Z,1030.1
2017-01-10T11:59:15.120Z,1030.02
2017-01-10T12:00:15.108Z,1030.05
2017-01-10T12:01:15.095Z,1030.03
2017-01-10T12:02:15.082Z,1030.04
2017-01-10T12:03:15.068Z,1030.04
2017-01-10T12:04:15.055Z,1030.07
2017-01-10T12:05:15.042Z,1030.1
2017-01-10T12:06:15.029Z,1030.09
2017-01-10T12:07:15.015Z,1030.18
2017-01-10T12:08:15.002Z,1030.22